Huvudsida
METAR-TAF:

METAR-TAF

Flygplatser :

Florø, Norge

Florø flygplats

latitud: 61-35N, longitud: 005-02E, höjd: 0 m

Aktuellt väderrapport

Denna rapport gjordes för 30 minuter sedan, klockan 10:20 UTC
Vind 17 kt från sydost
Temperatur 3°C
Fuktighet 70%
Tryck 983 hPa
Sikt 10 km eller mer
Få moln på en höjd av 1500 ft, Cumulonimbus.
Spridda moln på en höjd av 4500 ft
skurar i närheten

METAR: ENFL 171020Z 14017KT 9999 VCSH FEW015CB SCT045 03/M02 Q0983

Tid: 11:50 (10:50 UTC)

Väderprognos

Denna rapport gjordes för 2 timmar och 50 minuter sedan, klockan 08:00 UTC
Prognos gäller från 17 kl. 09 UTC till 17 kl. 18 UTC
Vind 15 kt från ost/sydost
Sikt 10 km eller mer
Få moln på en höjd av 1500 ft, Cumulonimbus.
Brutna moln på en höjd av 3000 ft
Sannolikhet 30% :
Temporärt
från 17 kl. 09 UTC till 17 kl. 13 UTC
Sikt: 2000 m
på en höjd av 800 ft
lätta snöbyar, regn

TAF: ENFL 170800Z 1709/1718 11015KT 9999 FEW015CB BKN030 PROB30 TEMPO 1709/1713 2000 -SHSNRA VV008

Aktuella väderrapporter och prognoser från 4000 flygplatser (METAR- och TAF-rapporter).

De tillgängliga stationerna syns som gula och röda prickar på kartan.

För musen över prickarna för att se namnen på stationerna.

Klicka sedan för att få väderrapporter och prognoser.

För att ändra kartan: Klicka på de gröna knapparna med ett svart kors på för att zooma in; den gröna knappen med ett streck på för att zooma ut; eller på de gröna pilarna för angränsande kartor.


METAR-TAF: